createdAt,value
2022-10-17T00:00:45.329Z,4.07
2022-10-17T00:03:11.993Z,3.70
2022-10-17T00:05:46.433Z,4.93
2022-10-17T00:08:14.655Z,4.18
2022-10-17T00:10:42.292Z,4.82
2022-10-17T00:13:09.624Z,4.55
2022-10-17T00:15:36.258Z,4.47
2022-10-17T00:18:03.947Z,4.38
2022-10-17T00:20:32.568Z,4.32
2022-10-17T00:22:59.164Z,4.07
2022-10-17T00:25:25.804Z,4.93
2022-10-17T00:27:52.378Z,3.95
2022-10-17T00:30:19.155Z,5.00
2022-10-17T00:32:45.872Z,4.75
2022-10-17T00:35:12.613Z,4.97
2022-10-17T00:37:39.228Z,4.95
2022-10-17T00:40:07.048Z,4.90
2022-10-17T00:42:34.196Z,5.22
2022-10-17T00:45:18.757Z,5.15
2022-10-17T00:47:53.813Z,5.32
2022-10-17T00:50:20.717Z,5.35
2022-10-17T00:52:48.784Z,5.35
2022-10-17T00:55:31.114Z,5.32
2022-10-17T00:58:00.587Z,5.18
2022-10-17T01:00:27.200Z,5.38
2022-10-17T01:02:54.013Z,5.30
2022-10-17T01:05:21.217Z,5.95
2022-10-17T01:07:50.587Z,5.10
2022-10-17T01:10:17.975Z,6.15
2022-10-17T01:13:15.972Z,5.50
2022-10-17T01:15:52.461Z,5.22
2022-10-17T01:18:38.518Z,5.20
2022-10-17T01:21:24.382Z,5.72
2022-10-17T01:24:15.944Z,6.07
2022-10-17T01:27:19.818Z,6.78
2022-10-17T01:30:10.479Z,6.40
2022-10-17T01:32:37.031Z,5.82
2022-10-17T01:35:18.948Z,5.60
2022-10-17T01:40:37.277Z,8.23
2022-10-17T01:43:11.113Z,7.90
2022-10-17T01:45:43.283Z,7.03
2022-10-17T01:48:17.496Z,6.10
2022-10-17T01:50:53.393Z,8.00
2022-10-17T01:53:34.163Z,7.35
2022-10-17T01:56:04.438Z,8.43
2022-10-17T01:58:39.941Z,8.40
2022-10-17T02:01:09.799Z,7.68
2022-10-17T02:03:38.090Z,8.07
2022-10-17T02:06:05.532Z,8.32
2022-10-17T02:08:47.833Z,8.00
2022-10-17T02:11:18.589Z,8.40
2022-10-17T02:14:30.089Z,8.50
2022-10-17T02:17:21.459Z,8.48
2022-10-17T02:20:00.357Z,9.23
2022-10-17T02:22:46.137Z,9.32
2022-10-17T02:25:25.517Z,8.52
2022-10-17T02:28:07.103Z,9.30
2022-10-17T02:30:55.174Z,8.02
2022-10-17T02:33:44.405Z,9.25
2022-10-17T02:36:19.679Z,8.95
2022-10-17T02:38:47.024Z,10.48
2022-10-17T02:41:16.509Z,9.85
2022-10-17T02:43:45.713Z,9.45
2022-10-17T02:46:21.030Z,10.43
2022-10-17T02:48:52.661Z,9.68
2022-10-17T02:54:15.517Z,9.90
2022-10-17T02:56:52.773Z,11.13
2022-10-17T02:59:22.530Z,10.27
2022-10-17T03:01:51.491Z,11.05
2022-10-17T03:04:18.973Z,10.10
2022-10-17T03:06:47.345Z,10.30
2022-10-17T03:09:14.270Z,10.48
2022-10-17T03:11:40.825Z,9.80
2022-10-17T03:14:07.540Z,10.82
2022-10-17T03:16:34.199Z,10.70
2022-10-17T03:19:00.755Z,10.32
2022-10-17T03:21:27.343Z,11.02
2022-10-17T03:23:53.919Z,10.52
2022-10-17T03:26:20.925Z,10.40
2022-10-17T03:28:50.662Z,11.80
2022-10-17T03:31:20.287Z,10.75
2022-10-17T03:33:46.937Z,10.02
2022-10-17T03:36:15.757Z,10.60
2022-10-17T03:38:43.054Z,10.98
2022-10-17T03:41:09.695Z,10.85
2022-10-17T03:43:36.358Z,10.48
2022-10-17T03:46:03.413Z,10.88
2022-10-17T03:48:31.344Z,11.45
2022-10-17T03:51:05.965Z,10.60
2022-10-17T03:53:33.084Z,11.18
2022-10-17T03:56:17.576Z,10.57
2022-10-17T03:58:44.299Z,10.38
2022-10-17T04:01:13.409Z,9.65
2022-10-17T04:03:40.696Z,11.32
2022-10-17T04:06:07.966Z,10.25
2022-10-17T04:08:35.195Z,9.90
2022-10-17T04:11:04.178Z,10.57
2022-10-17T04:13:31.077Z,11.45
2022-10-17T04:16:04.639Z,10.60
2022-10-17T04:18:31.661Z,10.38
2022-10-17T04:20:58.248Z,10.13
2022-10-17T04:23:26.431Z,10.20
2022-10-17T04:25:59.455Z,9.68
2022-10-17T04:28:27.840Z,11.05
2022-10-17T04:31:05.479Z,11.18
2022-10-17T04:33:32.739Z,10.63
2022-10-17T04:36:04.439Z,10.35
